createdAt,value
2019-02-10T00:00:05.164Z,5.30
2019-02-10T00:01:04.299Z,5.30
2019-02-10T00:02:04.675Z,5.30
2019-02-10T00:03:04.525Z,5.30
2019-02-10T00:04:04.837Z,5.30
2019-02-10T00:05:04.185Z,5.30
2019-02-10T00:06:04.771Z,5.30
2019-02-10T00:07:04.958Z,5.30
2019-02-10T00:08:04.502Z,5.30
2019-02-10T00:09:04.437Z,5.30
2019-02-10T00:10:04.524Z,5.30
2019-02-10T00:11:04.266Z,5.30
2019-02-10T00:12:04.327Z,5.30
2019-02-10T00:13:04.424Z,5.20
2019-02-10T00:14:04.443Z,5.20
2019-02-10T00:15:04.552Z,5.20
2019-02-10T00:16:04.575Z,5.20
2019-02-10T00:17:05.162Z,5.20
2019-02-10T00:18:04.789Z,5.20
2019-02-10T00:19:05.091Z,5.20
2019-02-10T00:20:04.468Z,5.20
2019-02-10T00:21:04.838Z,5.20
2019-02-10T00:22:04.985Z,5.20
2019-02-10T00:23:05.128Z,5.20
2019-02-10T00:24:04.235Z,5.20
2019-02-10T00:25:04.300Z,5.10
2019-02-10T00:26:04.280Z,5.10
2019-02-10T00:27:04.297Z,5.10
2019-02-10T00:28:04.468Z,5.10
2019-02-10T00:29:09.564Z,5.10
2019-02-10T00:30:04.885Z,5.10
2019-02-10T00:31:05.098Z,5.10
2019-02-10T00:32:05.081Z,5.10
2019-02-10T00:33:05.215Z,5.10
2019-02-10T00:34:04.258Z,5.10
2019-02-10T00:35:04.270Z,5.10
2019-02-10T00:36:04.687Z,5.10
2019-02-10T00:37:04.592Z,5.10
2019-02-10T00:38:04.262Z,5.10
2019-02-10T00:39:04.858Z,5.10
2019-02-10T00:40:05.026Z,5.10
2019-02-10T00:41:04.251Z,5.10
2019-02-10T00:42:04.762Z,5.10
2019-02-10T00:43:04.279Z,5.10
2019-02-10T00:44:04.942Z,5.10
2019-02-10T00:45:04.191Z,5.10
2019-02-10T00:46:04.455Z,5.00
2019-02-10T00:47:04.483Z,5.10
2019-02-10T00:48:04.632Z,5.10
2019-02-10T00:49:05.052Z,5.10
2019-02-10T00:50:05.032Z,5.00
2019-02-10T00:51:04.732Z,5.00
2019-02-10T00:52:04.897Z,5.00
2019-02-10T00:53:04.296Z,5.00
2019-02-10T00:54:04.720Z,5.00
2019-02-10T00:55:04.730Z,5.00
2019-02-10T00:56:04.233Z,5.00
2019-02-10T00:57:04.662Z,5.00
2019-02-10T00:58:05.269Z,5.00
2019-02-10T00:59:04.280Z,5.00
2019-02-10T01:00:04.922Z,5.00
2019-02-10T01:01:04.941Z,5.00
2019-02-10T01:02:04.344Z,5.00
2019-02-10T01:03:04.409Z,5.00
2019-02-10T01:04:04.973Z,5.00
2019-02-10T01:05:04.607Z,5.00
2019-02-10T01:06:09.740Z,5.00
2019-02-10T01:07:05.244Z,5.00
2019-02-10T01:08:04.314Z,5.00
2019-02-10T01:09:04.921Z,5.00
2019-02-10T01:10:05.439Z,5.00
2019-02-10T01:11:05.184Z,5.00
2019-02-10T01:12:04.231Z,5.00
2019-02-10T01:13:04.565Z,5.00
2019-02-10T01:14:04.729Z,5.00
2019-02-10T01:15:04.398Z,5.00
2019-02-10T01:16:04.499Z,5.00
2019-02-10T01:17:04.977Z,5.00
2019-02-10T01:18:05.000Z,4.90
2019-02-10T01:19:04.325Z,5.00
2019-02-10T01:20:04.351Z,4.90
2019-02-10T01:21:04.915Z,4.90
2019-02-10T01:22:05.173Z,4.90
2019-02-10T01:23:04.999Z,4.90
2019-02-10T01:24:04.255Z,4.90
2019-02-10T01:25:04.293Z,4.90
2019-02-10T01:26:04.399Z,4.90
2019-02-10T01:27:04.597Z,4.90
2019-02-10T01:28:05.168Z,4.90
2019-02-10T01:29:04.300Z,4.90
2019-02-10T01:30:04.443Z,4.90
2019-02-10T01:31:04.776Z,4.90
2019-02-10T01:32:04.510Z,4.90
2019-02-10T01:33:04.444Z,4.90
2019-02-10T01:34:04.524Z,4.90
2019-02-10T01:35:04.122Z,4.90
2019-02-10T01:36:04.385Z,4.90
2019-02-10T01:37:04.366Z,4.90
2019-02-10T01:38:05.209Z,4.80
2019-02-10T01:39:05.040Z,4.80
2019-02-10T01:40:09.285Z,4.80
2019-02-10T01:41:04.660Z,4.80
2019-02-10T01:42:04.192Z,4.80
2019-02-10T01:43:04.237Z,4.80
2019-02-10T01:44:04.579Z,4.80
2019-02-10T01:45:04.719Z,4.80
2019-02-10T01:46:04.294Z,4.80
2019-02-10T01:47:04.712Z,4.80
2019-02-10T01:48:05.031Z,4.80
2019-02-10T01:49:05.002Z,4.80
2019-02-10T01:50:04.221Z,4.80
2019-02-10T01:51:04.318Z,4.80
2019-02-10T01:52:04.347Z,4.80
2019-02-10T01:53:04.835Z,4.80
2019-02-10T01:54:04.959Z,4.80
2019-02-10T01:55:04.981Z,4.80
2019-02-10T01:56:04.995Z,4.80
2019-02-10T01:57:04.988Z,4.80
2019-02-10T01:58:04.274Z,4.80
2019-02-10T01:59:04.646Z,4.80
2019-02-10T02:00:04.742Z,4.80
2019-02-10T02:01:04.863Z,4.80
2019-02-10T02:02:04.251Z,4.70
2019-02-10T02:03:04.775Z,4.70
2019-02-10T02:04:04.309Z,4.70
2019-02-10T02:05:04.561Z,4.70
2019-02-10T02:06:04.971Z,4.70
2019-02-10T02:07:05.146Z,4.70
2019-02-10T02:08:05.115Z,4.70
2019-02-10T02:09:04.432Z,4.70
2019-02-10T02:10:04.948Z,4.70
2019-02-10T02:11:04.938Z,4.70
2019-02-10T02:12:05.116Z,4.70
2019-02-10T02:13:04.446Z,4.70
2019-02-10T02:14:05.027Z,4.70
2019-02-10T02:15:04.379Z,4.80
2019-02-10T02:16:04.384Z,4.80
2019-02-10T02:17:04.545Z,4.80
2019-02-10T02:18:04.676Z,4.80
2019-02-10T02:19:04.270Z,4.80
2019-02-10T02:20:04.326Z,4.80
2019-02-10T02:21:04.527Z,4.80
2019-02-10T02:22:04.514Z,4.80
2019-02-10T02:23:04.652Z,4.80
2019-02-10T02:24:04.710Z,4.80
2019-02-10T02:25:04.867Z,4.80
2019-02-10T02:26:05.020Z,4.80
2019-02-10T02:27:05.049Z,4.80
2019-02-10T02:28:04.717Z,4.80
2019-02-10T02:29:04.584Z,4.90
2019-02-10T02:30:05.171Z,4.90
2019-02-10T02:31:04.500Z,4.90
2019-02-10T02:32:04.782Z,4.90
2019-02-10T02:33:04.852Z,4.90
2019-02-10T02:34:04.896Z,4.90
2019-02-10T02:35:04.122Z,4.90
2019-02-10T02:36:04.863Z,4.90
2019-02-10T02:37:07.786Z,4.90
2019-02-10T02:38:04.934Z,4.90
2019-02-10T02:39:05.062Z,4.90
2019-02-10T02:40:04.814Z,4.90
2019-02-10T02:41:04.141Z,4.80
2019-02-10T02:42:04.499Z,4.90
2019-02-10T02:43:04.597Z,4.90
2019-02-10T02:44:04.740Z,4.90
2019-02-10T02:45:05.121Z,4.90
2019-02-10T02:46:04.995Z,4.80
2019-02-10T02:47:04.351Z,4.80
2019-02-10T02:48:04.211Z,4.80
2019-02-10T02:49:09.882Z,4.80
2019-02-10T02:50:04.262Z,4.80
2019-02-10T02:51:04.288Z,4.80
2019-02-10T02:52:04.656Z,4.80
2019-02-10T02:53:05.079Z,4.90
2019-02-10T02:54:04.346Z,4.90
2019-02-10T02:55:04.718Z,4.90
2019-02-10T02:56:04.947Z,4.80
2019-02-10T02:57:05.014Z,4.90
2019-02-10T02:58:04.284Z,4.90
2019-02-10T02:59:04.447Z,4.80
2019-02-10T03:00:04.531Z,4.90
2019-02-10T03:01:04.547Z,4.80
2019-02-10T03:02:04.703Z,4.90
2019-02-10T03:03:04.203Z,4.90
2019-02-10T03:04:04.253Z,4.90
2019-02-10T03:05:04.611Z,4.90
2019-02-10T03:06:04.792Z,4.90
2019-02-10T03:07:05.211Z,4.80
2019-02-10T03:08:04.719Z,4.80
2019-02-10T03:09:05.080Z,4.90
2019-02-10T03:10:05.142Z,4.90
2019-02-10T03:11:04.389Z,4.90
2019-02-10T03:12:04.489Z,4.80
2019-02-10T03:13:04.500Z,4.90
2019-02-10T03:14:04.650Z,4.90
2019-02-10T03:15:05.116Z,4.80
2019-02-10T03:16:04.758Z,4.90
2019-02-10T03:17:04.925Z,4.90
2019-02-10T03:18:04.288Z,4.80
2019-02-10T03:19:04.553Z,4.80
2019-02-10T03:20:05.191Z,4.80
2019-02-10T03:21:04.562Z,4.80
2019-02-10T03:22:04.628Z,4.80
2019-02-10T03:23:04.646Z,4.80
2019-02-10T03:24:04.740Z,4.80
2019-02-10T03:25:04.892Z,4.80
2019-02-10T03:26:04.934Z,4.80
2019-02-10T03:27:04.503Z,4.80
2019-02-10T03:28:04.883Z,4.70
2019-02-10T03:29:09.899Z,4.70
2019-02-10T03:30:04.349Z,4.70
2019-02-10T03:31:04.430Z,4.70
2019-02-10T03:32:05.182Z,4.70
2019-02-10T03:33:05.180Z,4.70
2019-02-10T03:34:04.383Z,4.70
2019-02-10T03:35:05.110Z,4.60
2019-02-10T03:36:04.198Z,4.60
2019-02-10T03:37:04.268Z,4.60
2019-02-10T03:38:04.405Z,4.60
2019-02-10T03:39:04.553Z,4.60
2019-02-10T03:40:04.466Z,4.50
2019-02-10T03:41:04.716Z,4.50
2019-02-10T03:42:04.847Z,4.50
2019-02-10T03:43:04.942Z,4.50
2019-02-10T03:44:04.299Z,4.50
2019-02-10T03:45:04.257Z,4.50
2019-02-10T03:46:04.902Z,4.50
2019-02-10T03:47:04.404Z,4.50
2019-02-10T03:48:04.411Z,4.40
2019-02-10T03:49:04.594Z,4.50
2019-02-10T03:50:04.785Z,4.40
2019-02-10T03:51:04.250Z,4.50
2019-02-10T03:52:04.271Z,4.50
2019-02-10T03:53:04.715Z,4.50
2019-02-10T03:54:04.275Z,4.50
2019-02-10T03:55:04.303Z,4.50
2019-02-10T03:56:04.359Z,4.50
2019-02-10T03:57:04.878Z,4.50
2019-02-10T03:58:04.294Z,4.60
2019-02-10T03:59:04.526Z,4.60
2019-02-10T04:00:04.932Z,4.60
2019-02-10T04:01:05.170Z,4.60
2019-02-10T04:02:04.336Z,4.60
2019-02-10T04:03:04.627Z,4.60
2019-02-10T04:04:04.798Z,4.60
2019-02-10T04:05:04.844Z,4.60
2019-02-10T04:06:04.217Z,4.60
2019-02-10T04:07:04.327Z,4.60
2019-02-10T04:08:04.487Z,4.70
2019-02-10T04:09:04.856Z,4.60
2019-02-10T04:10:04.989Z,4.70
2019-02-10T04:11:05.055Z,4.70
2019-02-10T04:12:05.281Z,4.70
2019-02-10T04:13:04.390Z,4.70
2019-02-10T04:14:04.739Z,4.70
2019-02-10T04:15:04.259Z,4.70
2019-02-10T04:16:04.344Z,4.80
2019-02-10T04:17:04.417Z,4.80
2019-02-10T04:18:04.450Z,4.80
2019-02-10T04:19:04.424Z,4.80
2019-02-10T04:20:04.774Z,4.80
2019-02-10T04:21:04.738Z,4.80
2019-02-10T04:22:04.976Z,4.70
2019-02-10T04:23:04.725Z,4.70
2019-02-10T04:24:04.844Z,4.80
2019-02-10T04:25:05.196Z,4.80
2019-02-10T04:26:04.330Z,4.80
2019-02-10T04:27:04.811Z,4.80
2019-02-10T04:28:04.292Z,4.80
2019-02-10T04:29:04.689Z,4.80
2019-02-10T04:30:04.944Z,4.80
2019-02-10T04:31:10.063Z,4.80
2019-02-10T04:32:04.399Z,4.80
2019-02-10T04:33:04.876Z,4.80
2019-02-10T04:34:04.959Z,4.80
2019-02-10T04:35:04.560Z,4.80
2019-02-10T04:36:04.679Z,4.80
2019-02-10T04:37:04.973Z,4.80
2019-02-10T04:38:05.055Z,4.80
2019-02-10T04:39:04.373Z,4.80
2019-02-10T04:40:04.416Z,4.80
2019-02-10T04:41:04.732Z,4.80
2019-02-10T04:42:04.853Z,4.80
2019-02-10T04:43:05.108Z,4.90
2019-02-10T04:44:05.092Z,4.90
2019-02-10T04:45:04.688Z,4.90
2019-02-10T04:46:04.850Z,4.90
2019-02-10T04:47:04.179Z,4.90
2019-02-10T04:48:04.728Z,4.90
2019-02-10T04:49:05.050Z,4.90
2019-02-10T04:50:05.231Z,4.90
2019-02-10T04:51:04.545Z,4.90
2019-02-10T04:52:05.134Z,4.90
2019-02-10T04:53:04.683Z,4.90
2019-02-10T04:54:04.939Z,4.90
2019-02-10T04:55:04.246Z,4.90
2019-02-10T04:56:04.651Z,4.90
2019-02-10T04:57:04.353Z,4.90
2019-02-10T04:58:04.893Z,4.90
2019-02-10T04:59:05.123Z,4.90
2019-02-10T05:00:04.509Z,4.90
2019-02-10T05:01:04.653Z,4.90
2019-02-10T05:02:04.243Z,4.90
2019-02-10T05:03:04.304Z,4.90
2019-02-10T05:04:04.651Z,4.90
2019-02-10T05:05:05.015Z,5.00
2019-02-10T05:06:05.033Z,5.00
2019-02-10T05:07:04.424Z,5.00
2019-02-10T05:08:04.674Z,5.00
2019-02-10T05:09:04.745Z,5.00
2019-02-10T05:10:04.848Z,5.00
2019-02-10T05:11:04.832Z,5.00
2019-02-10T05:12:04.909Z,5.00
2019-02-10T05:13:04.520Z,5.00
2019-02-10T05:14:04.743Z,5.00
2019-02-10T05:15:04.700Z,5.00
2019-02-10T05:16:05.048Z,5.00
2019-02-10T05:17:04.413Z,5.00
2019-02-10T05:18:04.718Z,5.00
2019-02-10T05:19:04.815Z,5.00
2019-02-10T05:20:05.040Z,5.00
2019-02-10T05:21:04.746Z,5.00
2019-02-10T05:22:04.261Z,5.00
2019-02-10T05:23:04.548Z,5.00
2019-02-10T05:24:04.953Z,5.00
2019-02-10T05:25:05.420Z,5.00
2019-02-10T05:26:05.036Z,5.00
2019-02-10T05:27:04.790Z,5.00
2019-02-10T05:28:04.827Z,5.10
2019-02-10T05:29:09.891Z,5.00
2019-02-10T05:30:04.321Z,5.10
2019-02-10T05:31:04.363Z,5.10
2019-02-10T05:32:04.871Z,5.10
2019-02-10T05:33:04.351Z,5.10
2019-02-10T05:34:04.648Z,5.10
2019-02-10T05:35:05.074Z,5.10
2019-02-10T05:36:05.245Z,5.10
2019-02-10T05:37:04.209Z,5.10
2019-02-10T05:38:04.657Z,5.10
2019-02-10T05:39:04.526Z,5.10
2019-02-10T05:40:04.821Z,5.10
2019-02-10T05:41:04.874Z,5.10
2019-02-10T05:42:05.129Z,5.20
2019-02-10T05:43:04.408Z,5.20
2019-02-10T05:44:04.726Z,5.20
2019-02-10T05:45:04.351Z,5.20
2019-02-10T05:46:04.337Z,5.20
2019-02-10T05:47:04.948Z,5.20
2019-02-10T05:48:04.507Z,5.20
2019-02-10T05:49:04.593Z,5.20
2019-02-10T05:50:05.043Z,5.30
2019-02-10T05:51:04.642Z,5.30
2019-02-10T05:52:04.938Z,5.20
2019-02-10T05:53:04.252Z,5.30
2019-02-10T05:54:04.846Z,5.20
2019-02-10T05:55:04.244Z,5.30
2019-02-10T05:56:09.572Z,5.30
2019-02-10T05:57:05.030Z,5.30
2019-02-10T05:58:04.284Z,5.30
2019-02-10T05:59:04.557Z,5.30
2019-02-10T06:00:05.142Z,5.30
2019-02-10T06:01:05.040Z,5.30
2019-02-10T06:02:05.212Z,5.30
2019-02-10T06:03:04.567Z,5.30
2019-02-10T06:04:04.897Z,5.30
2019-02-10T06:05:04.918Z,5.30
2019-02-10T06:06:04.399Z,5.30
2019-02-10T06:07:04.474Z,5.30
2019-02-10T06:08:12.652Z,5.30
2019-02-10T06:09:04.296Z,5.30
2019-02-10T06:10:04.305Z,5.40
2019-02-10T06:11:04.186Z,5.30
2019-02-10T06:12:04.332Z,5.30
2019-02-10T06:13:04.294Z,5.40
2019-02-10T06:14:04.468Z,5.40
2019-02-10T06:15:04.385Z,5.40
2019-02-10T06:16:05.104Z,5.40
2019-02-10T06:17:04.444Z,5.40
2019-02-10T06:18:04.806Z,5.40
2019-02-10T06:19:04.885Z,5.40
2019-02-10T06:20:04.961Z,5.50
2019-02-10T06:21:05.195Z,5.50
2019-02-10T06:22:04.293Z,5.50
2019-02-10T06:23:04.354Z,5.50
2019-02-10T06:24:04.839Z,5.50
2019-02-10T06:25:04.181Z,5.50
2019-02-10T06:26:04.439Z,5.50
2019-02-10T06:27:04.444Z,5.50
2019-02-10T06:28:04.765Z,5.60
2019-02-10T06:29:09.862Z,5.60
2019-02-10T06:30:04.217Z,5.60
2019-02-10T06:31:04.507Z,5.60
2019-02-10T06:32:04.565Z,5.60
2019-02-10T06:33:04.960Z,5.60
2019-02-10T06:34:04.971Z,5.60
2019-02-10T06:35:05.155Z,5.60
2019-02-10T06:36:04.337Z,5.60
2019-02-10T06:37:04.338Z,5.60
2019-02-10T06:38:05.262Z,5.60
2019-02-10T06:39:04.298Z,5.60
2019-02-10T06:40:04.682Z,5.60
2019-02-10T06:41:04.578Z,5.60
2019-02-10T06:42:04.744Z,5.70
2019-02-10T06:43:04.805Z,5.70
2019-02-10T06:44:05.242Z,5.70
2019-02-10T06:45:04.639Z,5.70
2019-02-10T06:46:04.863Z,5.70
2019-02-10T06:47:05.015Z,5.80
2019-02-10T06:48:04.721Z,5.80
2019-02-10T06:49:04.994Z,5.80
2019-02-10T06:50:05.011Z,5.80
2019-02-10T06:51:05.103Z,5.80
2019-02-10T06:52:05.169Z,5.80
2019-02-10T06:53:04.544Z,5.90
2019-02-10T06:54:04.998Z,5.90
2019-02-10T06:55:04.465Z,5.90
2019-02-10T06:56:04.724Z,5.90
2019-02-10T06:57:05.237Z,5.90
2019-02-10T06:58:05.297Z,5.90
2019-02-10T06:59:04.286Z,5.90
2019-02-10T07:00:04.273Z,5.90
2019-02-10T07:01:04.994Z,5.90
2019-02-10T07:02:04.514Z,5.90
2019-02-10T07:03:04.681Z,5.90
2019-02-10T07:04:04.983Z,5.90
2019-02-10T07:05:05.105Z,6.00
2019-02-10T07:06:04.457Z,6.00
2019-02-10T07:07:05.018Z,6.00
2019-02-10T07:08:04.183Z,6.00
2019-02-10T07:09:04.881Z,6.00
2019-02-10T07:10:05.003Z,6.00
2019-02-10T07:11:04.280Z,6.00
2019-02-10T07:12:04.503Z,6.00
2019-02-10T07:13:04.592Z,6.10
2019-02-10T07:14:04.633Z,6.10
2019-02-10T07:15:04.666Z,6.10
2019-02-10T07:16:05.019Z,6.10
2019-02-10T07:17:04.410Z,6.10
2019-02-10T07:18:04.771Z,6.10
2019-02-10T07:19:04.470Z,6.10
2019-02-10T07:20:04.636Z,6.10
2019-02-10T07:21:04.884Z,6.10
2019-02-10T07:22:04.862Z,6.10
2019-02-10T07:23:05.085Z,6.10
2019-02-10T07:24:04.236Z,6.20
2019-02-10T07:25:04.793Z,6.20
2019-02-10T07:26:04.444Z,6.20
2019-02-10T07:27:04.734Z,6.20
2019-02-10T07:28:04.551Z,6.20
2019-02-10T07:29:10.068Z,6.20
2019-02-10T07:30:04.481Z,6.20
2019-02-10T07:31:04.671Z,6.20
2019-02-10T07:32:04.812Z,6.20
2019-02-10T07:33:04.803Z,6.20
2019-02-10T07:34:04.832Z,6.20
2019-02-10T07:35:04.407Z,6.30
2019-02-10T07:36:04.283Z,6.30
2019-02-10T07:37:04.864Z,6.30
2019-02-10T07:38:05.195Z,6.30
2019-02-10T07:39:04.842Z,6.30
2019-02-10T07:40:04.861Z,6.30
2019-02-10T07:41:04.591Z,6.30
2019-02-10T07:42:05.024Z,6.30
2019-02-10T07:43:04.407Z,6.40
2019-02-10T07:44:04.812Z,6.30
2019-02-10T07:45:04.859Z,6.40
2019-02-10T07:46:04.491Z,6.40
2019-02-10T07:47:05.177Z,6.40
2019-02-10T07:48:04.819Z,6.40
2019-02-10T07:49:04.810Z,6.40
2019-02-10T07:50:04.329Z,6.40
2019-02-10T07:51:04.420Z,6.50
2019-02-10T07:52:04.808Z,6.50
2019-02-10T07:53:04.339Z,6.50
2019-02-10T07:54:04.388Z,6.50
2019-02-10T07:55:04.590Z,6.50
2019-02-10T07:56:04.876Z,6.50
2019-02-10T07:57:04.882Z,6.50
2019-02-10T07:58:04.462Z,6.50
2019-02-10T07:59:04.662Z,6.50
2019-02-10T08:00:04.237Z,6.50
2019-02-10T08:01:04.439Z,6.50
2019-02-10T08:02:04.847Z,6.50
2019-02-10T08:03:04.954Z,6.50
2019-02-10T08:04:04.556Z,6.50
2019-02-10T08:05:04.583Z,6.50
2019-02-10T08:06:04.934Z,6.50
2019-02-10T08:07:05.044Z,6.50
2019-02-10T08:08:05.148Z,6.50
2019-02-10T08:09:04.467Z,6.50
2019-02-10T08:10:04.948Z,6.50
2019-02-10T08:11:05.043Z,6.50
2019-02-10T08:12:05.130Z,6.50
2019-02-10T08:13:04.324Z,6.50
2019-02-10T08:14:04.562Z,6.50
2019-02-10T08:15:04.727Z,6.50
2019-02-10T08:16:05.034Z,6.50
2019-02-10T08:17:05.228Z,6.60
2019-02-10T08:18:04.650Z,6.60
2019-02-10T08:19:04.895Z,6.60
2019-02-10T08:20:04.588Z,6.60
2019-02-10T08:21:04.725Z,6.60
2019-02-10T08:22:04.824Z,6.60
2019-02-10T08:23:04.375Z,6.60
2019-02-10T08:24:04.467Z,6.60
2019-02-10T08:25:04.638Z,6.60
2019-02-10T08:26:04.378Z,6.60
2019-02-10T08:27:04.772Z,6.60
2019-02-10T08:28:05.142Z,6.60
2019-02-10T08:29:09.663Z,6.60
2019-02-10T08:30:05.034Z,6.70
2019-02-10T08:31:04.618Z,6.70
2019-02-10T08:32:05.070Z,6.70
2019-02-10T08:33:04.437Z,6.70
2019-02-10T08:34:04.651Z,6.70
2019-02-10T08:35:04.408Z,6.70
2019-02-10T08:36:04.815Z,6.80
2019-02-10T08:37:04.414Z,6.80
2019-02-10T08:38:04.858Z,6.80
2019-02-10T08:39:04.648Z,6.80
2019-02-10T08:40:04.957Z,6.80
2019-02-10T08:41:05.104Z,6.80
2019-02-10T08:42:04.305Z,6.80
2019-02-10T08:43:04.504Z,6.90
2019-02-10T08:44:04.870Z,6.90
2019-02-10T08:45:05.038Z,6.90
2019-02-10T08:46:04.560Z,6.90
2019-02-10T08:47:04.808Z,6.90
2019-02-10T08:48:04.904Z,6.90
2019-02-10T08:49:10.066Z,6.90
2019-02-10T08:50:04.555Z,7.00
2019-02-10T08:51:04.749Z,7.00
2019-02-10T08:52:04.950Z,7.00
2019-02-10T08:53:05.016Z,7.00
2019-02-10T08:54:05.119Z,7.00
2019-02-10T08:55:04.443Z,7.10
2019-02-10T08:56:04.940Z,7.10
2019-02-10T08:57:05.165Z,7.10
2019-02-10T08:58:04.966Z,7.10
2019-02-10T08:59:04.908Z,7.10
2019-02-10T09:00:04.376Z,7.10
2019-02-10T09:01:04.459Z,7.10
2019-02-10T09:02:04.769Z,7.10
2019-02-10T09:03:05.198Z,7.10
2019-02-10T09:04:04.304Z,7.10
2019-02-10T09:05:05.112Z,7.10
2019-02-10T09:06:04.336Z,7.20
2019-02-10T09:07:04.396Z,7.20
2019-02-10T09:08:04.854Z,7.20
2019-02-10T09:09:04.988Z,7.20
2019-02-10T09:10:04.369Z,7.20
2019-02-10T09:11:04.983Z,7.20
2019-02-10T09:12:04.243Z,7.30
2019-02-10T09:13:04.475Z,7.30
2019-02-10T09:14:04.493Z,7.30
2019-02-10T09:15:04.908Z,7.30
2019-02-10T09:16:04.204Z,7.30
2019-02-10T09:17:04.911Z,7.40
2019-02-10T09:18:04.191Z,7.40
2019-02-10T09:19:04.350Z,7.40
2019-02-10T09:20:05.126Z,7.40
2019-02-10T09:21:04.805Z,7.40
2019-02-10T09:22:04.909Z,7.40
2019-02-10T09:23:04.477Z,7.40
2019-02-10T09:24:04.436Z,7.40
2019-02-10T09:25:04.666Z,7.40
2019-02-10T09:26:04.276Z,7.40
2019-02-10T09:27:04.439Z,7.40
2019-02-10T09:28:04.406Z,7.40
2019-02-10T09:29:09.734Z,7.40
2019-02-10T09:30:05.050Z,7.40
2019-02-10T09:31:04.414Z,7.40
2019-02-10T09:32:04.481Z,7.40
2019-02-10T09:33:04.983Z,7.40
2019-02-10T09:34:05.012Z,7.40
2019-02-10T09:35:04.336Z,7.40
2019-02-10T09:36:04.449Z,7.40
2019-02-10T09:37:04.478Z,7.40
2019-02-10T09:38:05.150Z,7.40
2019-02-10T09:39:10.553Z,7.40
2019-02-10T09:40:04.789Z,7.40
2019-02-10T09:41:05.146Z,7.40
2019-02-10T09:42:04.766Z,7.30
2019-02-10T09:43:05.110Z,7.30
2019-02-10T09:44:05.061Z,7.30
2019-02-10T09:45:04.206Z,7.30
2019-02-10T09:46:04.478Z,7.30
2019-02-10T09:47:04.738Z,7.30
2019-02-10T09:48:05.248Z,7.30
2019-02-10T09:49:04.676Z,7.30
2019-02-10T09:50:05.042Z,7.30
2019-02-10T09:51:04.371Z,7.30
2019-02-10T09:52:04.414Z,7.30
2019-02-10T09:53:04.522Z,7.30
2019-02-10T09:54:04.717Z,7.30
2019-02-10T09:55:09.791Z,7.30
2019-02-10T09:56:05.230Z,7.30
2019-02-10T09:57:04.295Z,7.30
2019-02-10T09:58:04.533Z,7.30
2019-02-10T09:59:04.534Z,7.30
2019-02-10T10:00:04.712Z,7.30
2019-02-10T10:01:04.975Z,7.30
2019-02-10T10:02:05.152Z,7.30
2019-02-10T10:03:04.290Z,7.30
2019-02-10T10:04:04.491Z,7.30
2019-02-10T10:05:04.467Z,7.30
2019-02-10T10:06:04.583Z,7.30
2019-02-10T10:07:05.159Z,7.30
2019-02-10T10:08:04.263Z,7.30
2019-02-10T10:09:04.553Z,7.30
2019-02-10T10:10:04.519Z,7.30
2019-02-10T10:11:04.807Z,7.30
2019-02-10T10:12:04.464Z,7.30
2019-02-10T10:13:04.216Z,7.30
2019-02-10T10:14:04.826Z,7.30
2019-02-10T10:15:05.010Z,7.30
2019-02-10T10:16:04.703Z,7.30
2019-02-10T10:17:04.917Z,7.40
2019-02-10T10:18:04.252Z,7.30
2019-02-10T10:19:04.679Z,7.40
2019-02-10T10:20:04.742Z,7.40
2019-02-10T10:21:04.489Z,7.30
2019-02-10T10:22:04.891Z,7.30
2019-02-10T10:23:04.384Z,7.30
2019-02-10T10:24:04.443Z,7.30
2019-02-10T10:25:05.150Z,7.30
2019-02-10T10:26:04.324Z,7.30
2019-02-10T10:27:04.766Z,7.30
2019-02-10T10:28:04.853Z,7.30
2019-02-10T10:29:09.983Z,7.30
2019-02-10T10:30:05.079Z,7.30
2019-02-10T10:31:04.812Z,7.30
2019-02-10T10:32:05.262Z,7.30
2019-02-10T10:33:04.205Z,7.30
2019-02-10T10:34:04.455Z,7.30
2019-02-10T10:35:04.526Z,7.30
2019-02-10T10:36:04.562Z,7.30
2019-02-10T10:37:04.670Z,7.30
2019-02-10T10:38:05.177Z,7.30
2019-02-10T10:39:04.813Z,7.30
2019-02-10T10:40:04.884Z,7.30
2019-02-10T10:41:04.415Z,7.30
2019-02-10T10:42:04.932Z,7.30
2019-02-10T10:43:04.320Z,7.30
2019-02-10T10:44:04.352Z,7.30
2019-02-10T10:45:04.758Z,7.30
2019-02-10T10:46:05.084Z,7.30
2019-02-10T10:47:04.718Z,7.30
2019-02-10T10:48:04.845Z,7.40
2019-02-10T10:49:04.948Z,7.40
2019-02-10T10:50:05.189Z,7.40
2019-02-10T10:51:04.537Z,7.40
2019-02-10T10:52:04.989Z,7.40
2019-02-10T10:53:04.492Z,7.40
2019-02-10T10:54:04.749Z,7.40
2019-02-10T10:55:04.786Z,7.40
2019-02-10T10:56:04.360Z,7.50
2019-02-10T10:57:04.460Z,7.50
2019-02-10T10:58:04.664Z,7.50
2019-02-10T10:59:04.913Z,7.50
2019-02-10T11:00:05.113Z,7.50
2019-02-10T11:01:05.178Z,7.50
2019-02-10T11:02:04.906Z,7.50
2019-02-10T11:03:04.955Z,7.60
2019-02-10T11:04:05.060Z,7.60
2019-02-10T11:05:04.317Z,7.60
2019-02-10T11:06:04.843Z,7.60
2019-02-10T11:07:04.604Z,7.60
2019-02-10T11:08:04.276Z,7.60
2019-02-10T11:09:04.647Z,7.60
2019-02-10T11:10:04.674Z,7.60
2019-02-10T11:11:04.713Z,7.70
2019-02-10T11:12:04.161Z,7.70
2019-02-10T11:13:04.767Z,7.70
2019-02-10T11:14:04.946Z,7.70
2019-02-10T11:15:04.385Z,7.70
2019-02-10T11:16:04.413Z,7.70
2019-02-10T11:17:04.661Z,7.70
2019-02-10T11:18:05.224Z,7.70
2019-02-10T11:19:04.833Z,7.70
2019-02-10T11:20:04.496Z,7.70
2019-02-10T11:21:04.517Z,7.80
2019-02-10T11:22:04.606Z,7.80
2019-02-10T11:23:04.817Z,7.80
2019-02-10T11:24:04.945Z,7.80
2019-02-10T11:25:05.178Z,7.80
2019-02-10T11:26:04.731Z,7.90
2019-02-10T11:27:04.433Z,7.90
2019-02-10T11:28:04.828Z,7.90
2019-02-10T11:29:09.820Z,7.90
2019-02-10T11:30:04.327Z,8.00
2019-02-10T11:31:04.441Z,8.00
2019-02-10T11:32:04.696Z,8.00
2019-02-10T11:33:04.859Z,8.00
2019-02-10T11:34:04.217Z,8.10
2019-02-10T11:35:04.679Z,8.10
2019-02-10T11:36:04.220Z,8.10
2019-02-10T11:37:04.474Z,8.10
2019-02-10T11:38:04.440Z,8.20
2019-02-10T11:39:04.665Z,8.20
2019-02-10T11:40:04.549Z,8.20
2019-02-10T11:41:05.074Z,8.20
2019-02-10T11:42:04.429Z,8.20
2019-02-10T11:43:05.163Z,8.30
2019-02-10T11:44:05.227Z,8.30
2019-02-10T11:45:04.581Z,8.30
2019-02-10T11:46:04.291Z,8.30
2019-02-10T11:47:04.317Z,8.30
2019-02-10T11:48:04.457Z,8.30
2019-02-10T11:49:04.565Z,8.40
2019-02-10T11:50:04.592Z,8.40
2019-02-10T11:51:05.220Z,8.40
2019-02-10T11:52:04.616Z,8.40
2019-02-10T11:53:04.933Z,8.40
2019-02-10T11:54:04.365Z,8.50
2019-02-10T11:55:05.120Z,8.50
2019-02-10T11:56:05.140Z,8.50
2019-02-10T11:57:05.182Z,8.50
2019-02-10T11:58:04.654Z,8.60
2019-02-10T11:59:04.747Z,8.60
2019-02-10T12:00:05.015Z,8.60
2019-02-10T12:01:04.445Z,8.60
2019-02-10T12:02:04.488Z,8.60
2019-02-10T12:03:05.116Z,8.70
2019-02-10T12:04:04.645Z,8.70
2019-02-10T12:05:04.791Z,8.70
2019-02-10T12:06:04.933Z,8.70
2019-02-10T12:07:04.193Z,8.80
2019-02-10T12:08:04.770Z,8.80
2019-02-10T12:09:04.895Z,8.80
2019-02-10T12:10:05.033Z,8.80
2019-02-10T12:11:04.467Z,8.90
2019-02-10T12:12:04.713Z,8.90
2019-02-10T12:13:05.115Z,8.90
2019-02-10T12:14:04.349Z,8.90
2019-02-10T12:15:04.727Z,8.90
2019-02-10T12:16:04.793Z,8.90
2019-02-10T12:17:04.950Z,8.90
2019-02-10T12:18:04.822Z,9.00
2019-02-10T12:19:04.429Z,9.00
2019-02-10T12:20:04.606Z,9.00
2019-02-10T12:21:05.118Z,9.00
2019-02-10T12:22:04.414Z,9.00
2019-02-10T12:23:05.056Z,9.00
2019-02-10T12:24:05.106Z,9.00
2019-02-10T12:25:04.321Z,9.00
2019-02-10T12:26:04.893Z,9.10
2019-02-10T12:27:04.331Z,9.10
2019-02-10T12:28:04.756Z,9.10
2019-02-10T12:29:05.197Z,9.10
2019-02-10T12:30:04.723Z,9.10
2019-02-10T12:31:04.706Z,9.10
2019-02-10T12:32:04.736Z,9.10
2019-02-10T12:33:04.295Z,9.10
2019-02-10T12:34:04.356Z,9.10
2019-02-10T12:35:04.669Z,9.10
2019-02-10T12:36:04.809Z,9.20
2019-02-10T12:37:04.499Z,9.20
2019-02-10T12:38:04.518Z,9.20
2019-02-10T12:39:04.625Z,9.20
2019-02-10T12:40:04.872Z,9.20
2019-02-10T12:41:04.958Z,9.20
2019-02-10T12:42:05.089Z,9.30
2019-02-10T12:43:05.267Z,9.30
2019-02-10T12:44:04.321Z,9.30
2019-02-10T12:45:04.515Z,9.30
2019-02-10T12:46:04.947Z,9.30
2019-02-10T12:47:04.632Z,9.30
2019-02-10T12:48:05.133Z,9.30
2019-02-10T12:49:04.236Z,9.30
2019-02-10T12:50:04.348Z,9.30
2019-02-10T12:51:04.470Z,9.30
2019-02-10T12:52:05.096Z,9.20
2019-02-10T12:53:05.015Z,9.20
2019-02-10T12:54:05.149Z,9.20
2019-02-10T12:55:05.172Z,9.20
2019-02-10T12:56:04.418Z,9.20
2019-02-10T12:57:04.950Z,9.20
2019-02-10T12:58:05.190Z,9.20
2019-02-10T12:59:04.522Z,9.20
2019-02-10T13:00:04.668Z,9.20
2019-02-10T13:01:04.871Z,9.20
2019-02-10T13:02:04.394Z,9.20
2019-02-10T13:03:09.409Z,9.20
2019-02-10T13:04:04.796Z,9.10
2019-02-10T13:05:05.100Z,9.10
2019-02-10T13:06:05.117Z,9.10
2019-02-10T13:07:04.445Z,9.10
2019-02-10T13:08:04.491Z,9.10
2019-02-10T13:09:04.557Z,9.10
2019-02-10T13:10:08.118Z,9.10
2019-02-10T13:11:05.077Z,9.10
2019-02-10T13:12:04.682Z,9.10
2019-02-10T13:13:04.768Z,9.00
2019-02-10T13:14:04.720Z,9.00
2019-02-10T13:15:04.866Z,9.00
2019-02-10T13:16:04.509Z,9.00
2019-02-10T13:17:04.784Z,9.00
2019-02-10T13:18:05.250Z,9.00